Time;durP1;ratioP1;P1;durP2;ratioP2;P2;SDS_P1;SDS_P2;PMS_P1;PMS_P2;Temp;Humidity;BMP_temperature;BMP_pressure;BME280_temperature;BME280_humidity;BME280_pressure;Samples;Min_cycle;Max_cycle;Signal;HPM_P1;HPM_P2
2023/04/20 00:01:26;;;;;;;;;10.50;10.50;;;;;;;;5078231;28;11103;-90
2023/04/20 00:03:54;;;;;;;;;9.50;9.50;;;;;;;;5073813;28;11899;-90
2023/04/20 00:06:24;;;;;;;;;13.25;12.50;;;;;;;;5073370;28;11120;-94
2023/04/20 00:08:51;;;;;;;;;9.25;9.25;;;;;;;;5073177;28;11350;-90
2023/04/20 00:11:20;;;;;;;;;9.75;9.75;;;;;;;;5073156;28;11220;-90
2023/04/20 00:13:47;;;;;;;;;10.00;8.00;;;;;;;;5074390;28;11425;-94
2023/04/20 00:16:14;;;;;;;;;7.25;7.25;;;;;;;;5089852;28;11165;-94
2023/04/20 00:18:42;;;;;;;;;8.00;8.00;;;;;;;;5080943;28;11163;-92
2023/04/20 00:21:09;;;;;;;;;8.50;8.50;;;;;;;;5082763;28;11112;-94
2023/04/20 00:23:37;;;;;;;;;4.00;4.00;;;;;;;;5084383;28;11519;-95
2023/04/20 00:26:04;;;;;;;;;9.50;9.50;;;;;;;;5088536;28;11476;-91
2023/04/20 00:28:33;;;;;;;;;8.25;8.25;;;;;;;;5089239;28;11402;-93
2023/04/20 00:31:00;;;;;;;;;12.00;11.25;;;;;;;;5072918;28;11223;-90
2023/04/20 00:33:28;;;;;;;;;8.00;6.00;;;;;;;;5072054;28;11430;-88
2023/04/20 00:35:55;;;;;;;;;10.50;9.00;;;;;;;;5071204;28;11427;-88
2023/04/20 00:38:22;;;;;;;;;6.50;6.50;;;;;;;;5080459;28;11443;-88
2023/04/20 00:40:52;;;;;;;;;8.00;8.00;;;;;;;;5070853;28;11496;-88
2023/04/20 00:43:21;;;;;;;;;8.00;8.00;;;;;;;;5072052;28;11124;-89
2023/04/20 00:45:50;;;;;;;;;9.00;9.00;;;;;;;;5071416;28;11385;-89
2023/04/20 00:48:18;;;;;;;;;8.75;8.75;;;;;;;;5072943;28;11275;-90
2023/04/20 00:50:46;;;;;;;;;9.25;9.25;;;;;;;;5088353;28;11459;-89
2023/04/20 00:53:13;;;;;;;;;11.00;9.00;;;;;;;;5078949;28;11393;-88
2023/04/20 00:55:43;;;;;;;;;7.50;5.50;;;;;;;;5069328;28;11397;-88
2023/04/20 00:58:11;;;;;;;;;0.50;0.50;;;;;;;;5079658;28;11517;-88
2023/04/20 01:00:39;;;;;;;;;6.00;6.00;;;;;;;;5066440;28;11295;-90
2023/04/20 01:03:09;;;;;;;;;8.00;8.00;;;;;;;;5078632;28;11384;-88
2023/04/20 01:05:37;;;;;;;;;9.00;8.75;;;;;;;;5078357;28;11397;-87
2023/04/20 01:08:04;;;;;;;;;8.75;8.75;;;;;;;;5077562;28;11545;-89
2023/04/20 01:10:32;;;;;;;;;8.00;5.50;;;;;;;;5073703;28;11381;-89
2023/04/20 01:12:59;;;;;;;;;11.00;11.00;;;;;;;;5067652;28;11366;-93
2023/04/20 01:15:27;;;;;;;;;9.50;9.50;;;;;;;;5072562;28;11447;-89
2023/04/20 01:17:56;;;;;;;;;8.75;8.75;;;;;;;;5054534;28;11449;-88
2023/04/20 01:20:25;;;;;;;;;9.00;9.00;;;;;;;;5078429;28;11509;-89
2023/04/20 01:22:54;;;;;;;;;7.75;6.75;;;;;;;;5075901;28;11422;-88
2023/04/20 01:25:22;;;;;;;;;9.00;8.00;;;;;;;;5073631;28;11374;-89
2023/04/20 01:27:49;;;;;;;;;6.25;6.25;;;;;;;;5071852;28;11352;-88
2023/04/20 01:30:17;;;;;;;;;6.25;6.25;;;;;;;;5070239;28;11519;-89
2023/04/20 01:32:44;;;;;;;;;9.75;9.75;;;;;;;;5058856;28;11423;-89
2023/04/20 01:35:12;;;;;;;;;8.75;8.00;;;;;;;;5070619;28;11433;-88
2023/04/20 01:37:40;;;;;;;;;7.25;7.25;;;;;;;;5070871;28;11386;-89
2023/04/20 01:40:11;;;;;;;;;5.00;5.00;;;;;;;;5067735;28;11468;-94
2023/04/20 01:42:40;;;;;;;;;8.25;8.25;;;;;;;;5077212;28;11522;-93
2023/04/20 01:45:09;;;;;;;;;11.00;9.50;;;;;;;;5069558;28;11454;-89
2023/04/20 01:47:38;;;;;;;;;7.75;7.75;;;;;;;;5058917;28;11429;-93
2023/04/20 01:50:06;;;;;;;;;11.25;9.00;;;;;;;;5080542;28;11399;-91
2023/04/20 01:52:33;;;;;;;;;10.00;9.75;;;;;;;;5071668;28;11378;-89
2023/04/20 01:55:00;;;;;;;;;7.75;7.75;;;;;;;;5087028;28;11408;-89
2023/04/20 01:57:29;;;;;;;;;8.75;8.75;;;;;;;;5090121;28;11381;-89
2023/04/20 01:59:57;;;;;;;;;9.75;7.25;;;;;;;;5093411;28;11438;-91
2023/04/20 02:05:06;;;;;;;;;0.00;0.00;;;;;;;;5101104;28;11409;-88
2023/04/20 02:07:33;;;;;;;;;7.75;7.25;;;;;;;;5097998;28;11411;-89
2023/04/20 02:10:01;;;;;;;;;9.50;8.75;;;;;;;;5095876;28;11377;-92
2023/04/20 02:12:30;;;;;;;;;5.00;5.00;;;;;;;;5056691;28;11438;-88
2023/04/20 02:14:57;;;;;;;;;7.25;7.25;;;;;;;;5061815;28;11445;-89
2023/04/20 02:17:36;;;;;;;;;10.50;9.00;;;;;;;;5092753;28;11468;-91
2023/04/20 02:20:08;;;;;;;;;8.00;8.00;;;;;;;;5100266;28;11440;-87
2023/04/20 02:22:35;;;;;;;;;7.50;7.50;;;;;;;;5077816;28;11444;-89
2023/04/20 02:25:03;;;;;;;;;11.25;7.75;;;;;;;;5074389;28;11387;-89
2023/04/20 02:27:32;;;;;;;;;8.00;8.00;;;;;;;;5073621;28;12172;-89
2023/04/20 02:30:00;;;;;;;;;14.75;11.00;;;;;;;;5081601;28;11434;-88
2023/04/20 02:32:33;;;;;;;;;7.50;7.25;;;;;;;;5063972;28;11358;-89
2023/04/20 02:35:01;;;;;;;;;7.50;7.50;;;;;;;;5072366;28;11510;-88
2023/04/20 02:37:28;;;;;;;;;8.00;8.00;;;;;;;;5070781;28;11418;-90
2023/04/20 02:39:58;;;;;;;;;10.25;8.25;;;;;;;;5085144;28;11396;-91
2023/04/20 02:42:28;;;;;;;;;7.50;7.00;;;;;;;;5074424;28;11379;-90
2023/04/20 02:44:58;;;;;;;;;9.00;7.25;;;;;;;;5055047;28;11393;-90
2023/04/20 02:47:26;;;;;;;;;6.25;6.25;;;;;;;;5078126;28;11377;-89
2023/04/20 02:49:53;;;;;;;;;6.75;6.75;;;;;;;;5059946;28;11758;-89
2023/04/20 02:52:20;;;;;;;;;5.50;5.50;;;;;;;;5070534;28;11425;-88
2023/04/20 02:54:48;;;;;;;;;10.50;8.50;;;;;;;;5081546;28;11502;-90
2023/04/20 02:57:15;;;;;;;;;8.50;8.50;;;;;;;;5084603;28;11495;-88
2023/04/20 02:59:43;;;;;;;;;7.25;7.25;;;;;;;;5064522;28;12103;-89
2023/04/20 03:02:11;;;;;;;;;5.00;5.00;;;;;;;;5069076;28;11414;-89
2023/04/20 03:04:39;;;;;;;;;7.75;7.75;;;;;;;;5077727;28;11397;-89
2023/04/20 03:07:06;;;;;;;;;8.00;8.00;;;;;;;;5077520;28;11360;-89
2023/04/20 03:09:34;;;;;;;;;7.00;7.00;;;;;;;;5071768;28;11456;-90
2023/04/20 03:12:02;;;;;;;;;9.75;9.00;;;;;;;;5082307;28;11415;-89
2023/04/20 03:14:29;;;;;;;;;11.75;8.00;;;;;;;;5071524;28;11541;-92
2023/04/20 03:16:57;;;;;;;;;7.50;7.50;;;;;;;;5081745;28;11527;-91
2023/04/20 03:19:26;;;;;;;;;8.00;6.00;;;;;;;;5079272;28;11444;-89
2023/04/20 03:21:53;;;;;;;;;12.00;9.25;;;;;;;;5059351;28;11448;-90
2023/04/20 03:24:21;;;;;;;;;8.25;8.25;;;;;;;;5081385;28;11460;-93
2023/04/20 03:26:48;;;;;;;;;8.00;8.00;;;;;;;;5084107;28;11567;-88
2023/04/20 03:29:16;;;;;;;;;10.00;8.25;;;;;;;;5079515;28;11445;-88
2023/04/20 03:31:43;;;;;;;;;12.50;8.25;;;;;;;;5063565;28;11927;-88
2023/04/20 03:34:10;;;;;;;;;8.50;7.75;;;;;;;;5051537;28;11588;-90
2023/04/20 03:36:40;;;;;;;;;7.00;7.00;;;;;;;;5077547;28;11498;-91
2023/04/20 03:39:07;;;;;;;;;8.25;7.75;;;;;;;;5078503;28;11409;-89
2023/04/20 03:41:35;;;;;;;;;10.50;8.00;;;;;;;;5056078;28;11532;-89
2023/04/20 03:44:02;;;;;;;;;8.25;8.25;;;;;;;;5084858;28;11410;-89
2023/04/20 03:46:29;;;;;;;;;9.75;8.00;;;;;;;;5064332;28;11722;-89
2023/04/20 03:48:56;;;;;;;;;8.50;8.50;;;;;;;;5084234;28;11426;-88
2023/04/20 03:51:24;;;;;;;;;7.75;7.50;;;;;;;;5069222;28;11508;-89
2023/04/20 03:53:53;;;;;;;;;9.50;9.50;;;;;;;;5079664;28;11533;-89
2023/04/20 03:56:20;;;;;;;;;9.00;8.00;;;;;;;;5072287;28;11451;-93
2023/04/20 03:58:47;;;;;;;;;9.00;7.50;;;;;;;;5073134;28;11444;-94
2023/04/20 04:01:15;;;;;;;;;6.00;3.75;;;;;;;;5071987;28;11478;-92
2023/04/20 04:03:42;;;;;;;;;8.00;8.00;;;;;;;;5073482;28;11480;-94
2023/04/20 04:06:10;;;;;;;;;8.00;8.00;;;;;;;;5074556;28;11466;-95
2023/04/20 04:08:37;;;;;;;;;11.75;11.75;;;;;;;;5087478;28;11574;-92
2023/04/20 04:11:06;;;;;;;;;8.00;8.00;;;;;;;;5074334;28;11487;-91
2023/04/20 04:13:33;;;;;;;;;7.75;7.75;;;;;;;;5090350;28;11431;-91
2023/04/20 04:16:01;;;;;;;;;11.50;9.25;;;;;;;;5090581;28;11419;-90
2023/04/20 04:18:31;;;;;;;;;10.75;10.75;;;;;;;;5083762;28;11461;-88
2023/04/20 04:20:58;;;;;;;;;9.25;9.25;;;;;;;;5074217;28;11492;-89
2023/04/20 04:23:28;;;;;;;;;9.25;9.25;;;;;;;;5076143;28;11474;-88
2023/04/20 04:25:57;;;;;;;;;14.25;12.25;;;;;;;;5075810;28;11450;-89
2023/04/20 04:28:26;;;;;;;;;8.75;8.75;;;;;;;;5077043;28;11595;-87
2023/04/20 04:30:54;;;;;;;;;8.50;8.50;;;;;;;;5070965;28;11517;-89
2023/04/20 04:33:22;;;;;;;;;10.75;10.75;;;;;;;;5074490;28;11439;-87
2023/04/20 04:35:49;;;;;;;;;11.75;9.25;;;;;;;;5074567;28;11442;-88
2023/04/20 04:38:16;;;;;;;;;9.25;9.25;;;;;;;;5071402;28;11561;-89
2023/04/20 04:40:44;;;;;;;;;10.50;5.50;;;;;;;;5070859;28;11450;-88
2023/04/20 04:43:12;;;;;;;;;7.50;7.50;;;;;;;;5073777;28;11406;-88
2023/04/20 04:45:41;;;;;;;;;10.00;10.00;;;;;;;;5079965;28;11471;-86
2023/04/20 04:48:10;;;;;;;;;11.50;10.00;;;;;;;;5074354;28;11543;-87
2023/04/20 04:50:39;;;;;;;;;9.25;8.75;;;;;;;;5073361;28;11457;-87
2023/04/20 04:53:07;;;;;;;;;9.25;9.25;;;;;;;;5079745;28;11536;-89
2023/04/20 04:55:34;;;;;;;;;13.50;10.75;;;;;;;;5072978;28;11535;-90
2023/04/20 04:58:02;;;;;;;;;7.50;7.50;;;;;;;;5071156;28;11528;-89
2023/04/20 05:00:30;;;;;;;;;10.75;10.75;;;;;;;;5070365;28;11330;-88
2023/04/20 05:02:59;;;;;;;;;9.50;9.50;;;;;;;;5071119;28;11517;-89
2023/04/20 05:05:26;;;;;;;;;13.00;11.25;;;;;;;;5072914;28;11456;-90
2023/04/20 05:07:54;;;;;;;;;13.75;13.75;;;;;;;;5073724;28;11551;-88
2023/04/20 05:10:22;;;;;;;;;10.50;10.50;;;;;;;;5073052;28;11460;-89
2023/04/20 05:12:51;;;;;;;;;9.50;8.50;;;;;;;;5074446;28;11456;-91
2023/04/20 05:15:21;;;;;;;;;14.75;12.75;;;;;;;;5077530;28;11546;-91
2023/04/20 05:17:56;;;;;;;;;11.25;11.25;;;;;;;;5076117;28;11466;-89
2023/04/20 05:20:27;;;;;;;;;10.75;10.50;;;;;;;;5071991;28;11433;-93
2023/04/20 05:22:58;;;;;;;;;12.75;10.25;;;;;;;;5053960;28;11574;-92
2023/04/20 05:25:25;;;;;;;;;10.75;8.50;;;;;;;;5070642;28;11571;-93
2023/04/20 05:27:55;;;;;;;;;8.75;8.75;;;;;;;;5063340;28;11482;-94
2023/04/20 05:30:22;;;;;;;;;11.00;11.00;;;;;;;;5070672;28;11442;-95
2023/04/20 05:32:50;;;;;;;;;9.25;9.25;;;;;;;;5071699;28;11427;-90
2023/04/20 05:35:18;;;;;;;;;12.00;10.00;;;;;;;;5072207;28;11479;-91
2023/04/20 05:37:47;;;;;;;;;11.25;11.25;;;;;;;;5071707;28;11446;-91
2023/04/20 05:40:14;;;;;;;;;16.25;12.50;;;;;;;;5066471;28;11486;-92
2023/04/20 05:42:48;;;;;;;;;13.50;12.00;;;;;;;;5074944;28;11491;-90
2023/04/20 05:45:15;;;;;;;;;16.50;13.75;;;;;;;;5075233;28;11496;-92
2023/04/20 05:47:42;;;;;;;;;12.75;12.75;;;;;;;;5073449;28;11471;-95
2023/04/20 05:50:13;;;;;;;;;14.25;13.00;;;;;;;;5076680;28;11541;-92
2023/04/20 05:52:40;;;;;;;;;11.00;11.00;;;;;;;;5073576;28;11500;-91
2023/04/20 05:55:10;;;;;;;;;9.25;9.25;;;;;;;;5080763;28;11523;-95
2023/04/20 05:57:41;;;;;;;;;9.00;9.00;;;;;;;;5078547;28;11560;-95
2023/04/20 06:00:10;;;;;;;;;9.00;9.00;;;;;;;;5082247;28;11481;-95
2023/04/20 06:02:37;;;;;;;;;9.75;9.75;;;;;;;;5065948;28;11450;-96
2023/04/20 06:05:05;;;;;;;;;12.25;12.25;;;;;;;;5085671;28;11471;-92
2023/04/20 06:07:35;;;;;;;;;13.00;12.25;;;;;;;;5093932;28;11465;-94
2023/04/20 06:10:03;;;;;;;;;15.50;15.50;;;;;;;;5073174;28;11462;-93
2023/04/20 06:12:32;;;;;;;;;10.75;10.75;;;;;;;;5077847;28;11480;-92
2023/04/20 06:15:00;;;;;;;;;17.75;13.00;;;;;;;;5094048;28;11454;-92
2023/04/20 06:17:32;;;;;;;;;8.25;8.00;;;;;;;;5078250;28;11482;-93
2023/04/20 06:20:02;;;;;;;;;10.25;10.25;;;;;;;;5076219;28;11466;-91
2023/04/20 06:22:30;;;;;;;;;15.50;14.25;;;;;;;;5069823;28;11463;-91
2023/04/20 06:25:02;;;;;;;;;15.50;15.50;;;;;;;;5073325;28;11478;-92
2023/04/20 06:27:29;;;;;;;;;14.75;13.00;;;;;;;;5072066;28;11627;-73
2023/04/20 06:29:59;;;;;;;;;12.25;12.25;;;;;;;;5078141;28;11660;-72
2023/04/20 06:32:26;;;;;;;;;9.00;9.00;;;;;;;;5083007;28;11397;-73
2023/04/20 06:34:53;;;;;;;;;12.75;8.25;;;;;;;;5080097;28;11434;-76
2023/04/20 06:37:21;;;;;;;;;15.50;11.75;;;;;;;;5076959;28;12344;-75
2023/04/20 06:39:48;;;;;;;;;18.00;13.50;;;;;;;;5076521;28;11469;-72
2023/04/20 06:42:16;;;;;;;;;19.75;14.75;;;;;;;;5057283;28;11462;-73
2023/04/20 06:44:44;;;;;;;;;11.25;11.25;;;;;;;;5066417;28;11488;-72
2023/04/20 06:47:12;;;;;;;;;14.00;12.00;;;;;;;;5067817;28;11586;-75
2023/04/20 06:49:40;;;;;;;;;10.75;10.00;;;;;;;;5066464;28;11478;-73
2023/04/20 06:52:07;;;;;;;;;11.50;11.50;;;;;;;;5067908;28;11474;-73
2023/04/20 06:54:34;;;;;;;;;11.50;10.75;;;;;;;;5066836;28;11411;-75
2023/04/20 06:57:01;;;;;;;;;15.75;11.50;;;;;;;;5072899;28;11599;-74
2023/04/20 06:59:28;;;;;;;;;12.00;9.50;;;;;;;;5075537;28;11499;-73
2023/04/20 07:01:55;;;;;;;;;14.25;11.25;;;;;;;;5080244;28;11342;-76
2023/04/20 07:04:24;;;;;;;;;15.25;12.25;;;;;;;;5075920;28;11576;-75
2023/04/20 07:06:51;;;;;;;;;9.50;9.00;;;;;;;;5080672;28;11468;-75
2023/04/20 07:09:18;;;;;;;;;17.75;10.75;;;;;;;;5075151;28;11600;-71
2023/04/20 07:11:46;;;;;;;;;11.75;11.50;;;;;;;;5075097;28;11391;-75
2023/04/20 07:14:13;;;;;;;;;12.50;10.25;;;;;;;;5078478;28;11500;-74
2023/04/20 07:16:40;;;;;;;;;9.50;9.50;;;;;;;;5071386;28;11510;-73
2023/04/20 07:19:07;;;;;;;;;10.75;9.50;;;;;;;;5078189;28;11432;-75
2023/04/20 07:21:36;;;;;;;;;12.50;11.25;;;;;;;;5084017;28;11415;-73
2023/04/20 07:24:03;;;;;;;;;10.50;10.50;;;;;;;;5078922;28;11521;-77
2023/04/20 07:26:30;;;;;;;;;15.25;13.00;;;;;;;;5076916;28;11395;-75
2023/04/20 07:28:58;;;;;;;;;13.75;10.00;;;;;;;;5079841;28;11438;-75
2023/04/20 07:31:25;;;;;;;;;9.00;9.00;;;;;;;;5083224;28;11384;-74
2023/04/20 07:33:52;;;;;;;;;8.00;8.00;;;;;;;;5079465;28;11401;-77
2023/04/20 07:36:21;;;;;;;;;9.75;9.75;;;;;;;;5082697;28;11376;-76
2023/04/20 07:38:49;;;;;;;;;9.00;9.00;;;;;;;;5077736;28;11482;-76
2023/04/20 07:41:17;;;;;;;;;5.25;5.00;;;;;;;;5077743;28;11513;-75
2023/04/20 07:43:44;;;;;;;;;8.00;8.00;;;;;;;;5079754;28;11381;-78
2023/04/20 07:46:19;;;;;;;;;10.50;9.50;;;;;;;;5081935;28;11356;-79
2023/04/20 07:48:46;;;;;;;;;9.50;9.50;;;;;;;;5081855;28;11388;-79
2023/04/20 07:51:13;;;;;;;;;6.50;6.50;;;;;;;;5080845;28;11455;-82
2023/04/20 07:53:41;;;;;;;;;8.00;8.00;;;;;;;;5076966;28;11211;-79
2023/04/20 07:56:10;;;;;;;;;9.75;7.75;;;;;;;;5080287;28;11272;-78
2023/04/20 07:58:39;;;;;;;;;8.25;8.25;;;;;;;;5079978;28;11128;-76
2023/04/20 08:01:06;;;;;;;;;6.00;6.00;;;;;;;;5068991;28;10988;-73
2023/04/20 08:03:34;;;;;;;;;7.25;7.25;;;;;;;;5070320;28;11858;-74
2023/04/20 08:06:01;;;;;;;;;11.00;11.00;;;;;;;;5081278;28;11030;-74
2023/04/20 08:08:29;;;;;;;;;11.00;10.25;;;;;;;;5080423;28;10905;-74
2023/04/20 08:10:57;;;;;;;;;11.00;8.50;;;;;;;;5071126;28;10844;-76
2023/04/20 08:13:27;;;;;;;;;9.00;9.00;;;;;;;;5073771;28;10816;-76
2023/04/20 08:15:54;;;;;;;;;6.00;6.00;;;;;;;;5070726;28;11118;-76
2023/04/20 08:18:21;;;;;;;;;8.75;8.75;;;;;;;;5069595;28;11166;-75
2023/04/20 08:20:50;;;;;;;;;5.00;5.00;;;;;;;;5070371;28;11365;-76
2023/04/20 08:23:17;;;;;;;;;2.50;2.50;;;;;;;;5069282;28;10528;-74
2023/04/20 08:25:44;;;;;;;;;6.50;4.75;;;;;;;;5069942;28;10448;-74
2023/04/20 08:28:11;;;;;;;;;4.25;4.25;;;;;;;;5070962;28;10458;-75
2023/04/20 08:30:41;;;;;;;;;4.75;4.75;;;;;;;;5069327;28;10542;-80
2023/04/20 08:33:08;;;;;;;;;4.50;4.50;;;;;;;;5070092;28;10562;-75
2023/04/20 08:35:35;;;;;;;;;3.75;3.75;;;;;;;;5069687;28;10606;-76
2023/04/20 08:38:02;;;;;;;;;8.75;7.00;;;;;;;;5069701;28;11433;-74
2023/04/20 08:40:30;;;;;;;;;7.25;4.00;;;;;;;;5065726;28;10810;-74
2023/04/20 08:42:58;;;;;;;;;5.00;5.00;;;;;;;;5065953;28;10808;-74
2023/04/20 08:45:25;;;;;;;;;5.50;5.50;;;;;;;;5069510;28;10842;-75
2023/04/20 08:47:54;;;;;;;;;6.50;5.50;;;;;;;;5069421;28;10755;-74
2023/04/20 08:50:21;;;;;;;;;6.00;6.00;;;;;;;;5069821;28;10647;-74
